Time;durP1;ratioP1;P1;durP2;ratioP2;P2;SDS_P1;SDS_P2;PMS_P1;PMS_P2;Temp;Humidity;BMP_temperature;BMP_pressure;BME280_temperature;BME280_humidity;BME280_pressure;Samples;Min_cycle;Max_cycle;Signal;HPM_P1;HPM_P2
2021/12/15 00:00:53;;;;;;;68.03;17.40;;;;;;;;;;4941043;28;20383;-68
2021/12/15 00:03:19;;;;;;;48.10;17.08;;;;;;;;;;4956548;28;20515;-68
2021/12/15 00:05:46;;;;;;;41.30;16.77;;;;;;;;;;4942298;28;20047;-68
2021/12/15 00:08:11;;;;;;;48.33;18.40;;;;;;;;;;4942899;28;20031;-68
2021/12/15 00:10:38;;;;;;;47.97;17.40;;;;;;;;;;4943724;28;20036;-68
2021/12/15 00:13:03;;;;;;;48.85;18.75;;;;;;;;;;4943704;28;20031;-68
2021/12/15 00:15:29;;;;;;;53.83;18.58;;;;;;;;;;4941030;28;20023;-68
2021/12/15 00:17:55;;;;;;;61.92;17.60;;;;;;;;;;4942427;28;20036;-68
2021/12/15 00:20:20;;;;;;;62.78;18.48;;;;;;;;;;4943304;28;20031;-68
2021/12/15 00:22:46;;;;;;;76.93;18.35;;;;;;;;;;4943021;28;20086;-68
2021/12/15 00:25:11;;;;;;;76.50;18.15;;;;;;;;;;4945922;28;20264;-68
2021/12/15 00:27:37;;;;;;;46.13;17.50;;;;;;;;;;4956467;28;20066;-68
2021/12/15 00:30:04;;;;;;;51.60;17.38;;;;;;;;;;4957517;28;20035;-68
2021/12/15 00:32:29;;;;;;;45.42;16.48;;;;;;;;;;4941443;28;20513;-68
2021/12/15 00:34:54;;;;;;;47.65;15.32;;;;;;;;;;4941725;28;20121;-68
2021/12/15 00:37:20;;;;;;;47.47;16.50;;;;;;;;;;4942747;29;20106;-68
2021/12/15 00:39:45;;;;;;;60.83;16.80;;;;;;;;;;4943151;28;20118;-68
2021/12/15 00:42:10;;;;;;;51.40;15.88;;;;;;;;;;4943020;28;20098;-68
2021/12/15 00:44:36;;;;;;;46.70;16.25;;;;;;;;;;4957050;28;20552;-69
2021/12/15 00:47:03;;;;;;;60.55;14.15;;;;;;;;;;4940304;28;20090;-69
2021/12/15 00:49:28;;;;;;;84.50;14.98;;;;;;;;;;4956624;28;20024;-68
2021/12/15 00:51:53;;;;;;;57.40;14.05;;;;;;;;;;4942785;28;20042;-68
2021/12/15 00:54:19;;;;;;;59.10;14.35;;;;;;;;;;4942044;29;20062;-68
2021/12/15 00:56:44;;;;;;;39.33;13.23;;;;;;;;;;4942042;28;20067;-68
2021/12/15 00:59:09;;;;;;;41.38;13.95;;;;;;;;;;4942161;28;20105;-68
2021/12/15 01:01:35;;;;;;;48.58;12.98;;;;;;;;;;4942256;28;20083;-68
2021/12/15 01:04:01;;;;;;;66.78;14.52;;;;;;;;;;4941954;28;20398;-68
2021/12/15 01:06:26;;;;;;;40.10;13.48;;;;;;;;;;4941028;28;20033;-68
2021/12/15 01:08:56;;;;;;;44.10;14.35;;;;;;;;;;4961331;28;20039;-68
2021/12/15 01:12:07;;;;;;;69.63;14.75;;;;;;;;;;4996658;23;20460;-77
2021/12/15 01:20:02;;;;;;;44.67;13.55;;;;;;;;;;5000050;28;20894;-78
2021/12/15 01:22:29;;;;;;;34.88;12.52;;;;;;;;;;4995089;28;20043;-77
2021/12/15 01:24:56;;;;;;;80.75;13.13;;;;;;;;;;4987864;28;20035;-77
2021/12/15 01:27:22;;;;;;;26.55;10.68;;;;;;;;;;4994937;28;20235;-77
2021/12/15 01:29:47;;;;;;;36.80;12.63;;;;;;;;;;4985424;28;20132;-77
2021/12/15 01:32:12;;;;;;;56.58;13.82;;;;;;;;;;4985868;28;20038;-77
2021/12/15 01:34:38;;;;;;;37.95;12.27;;;;;;;;;;4985922;28;20084;-76
2021/12/15 01:37:03;;;;;;;29.83;11.10;;;;;;;;;;4984957;28;20069;-77
2021/12/15 01:39:28;;;;;;;34.85;11.10;;;;;;;;;;4985750;28;20061;-76
2021/12/15 01:41:56;;;;;;;28.48;10.43;;;;;;;;;;4985656;28;20054;-77
2021/12/15 01:46:55;;;;;;;37.17;11.35;;;;;;;;;;4993971;28;20559;-77
2021/12/15 01:49:27;;;;;;;41.42;11.75;;;;;;;;;;4984675;28;20145;-76
2021/12/15 01:51:53;;;;;;;33.40;11.50;;;;;;;;;;5000302;28;20034;-77
2021/12/15 01:54:19;;;;;;;38.75;12.52;;;;;;;;;;4983627;28;20502;-77
2021/12/15 01:56:45;;;;;;;32.83;12.63;;;;;;;;;;4995861;28;20030;-77
2021/12/15 01:59:11;;;;;;;35.88;12.75;;;;;;;;;;4967907;28;20566;-77
2021/12/15 02:01:36;;;;;;;43.95;13.02;;;;;;;;;;4990201;28;20045;-76
2021/12/15 02:04:02;;;;;;;37.30;11.88;;;;;;;;;;4983646;28;20034;-77
2021/12/15 02:06:27;;;;;;;30.33;12.15;;;;;;;;;;4984810;28;20536;-77
2021/12/15 02:08:52;;;;;;;42.40;12.23;;;;;;;;;;4984065;28;20030;-76
2021/12/15 02:11:18;;;;;;;34.13;11.55;;;;;;;;;;4984085;28;20050;-77
2021/12/15 02:13:43;;;;;;;54.00;10.70;;;;;;;;;;4983371;28;20488;-76
2021/12/15 02:16:09;;;;;;;37.42;11.35;;;;;;;;;;4976384;28;20060;-77
2021/12/15 02:18:36;;;;;;;38.50;12.63;;;;;;;;;;4995089;28;20034;-76
2021/12/15 02:21:07;;;;;;;34.95;11.32;;;;;;;;;;4992602;28;20029;-76
2021/12/15 02:23:38;;;;;;;37.15;12.60;;;;;;;;;;4987967;28;20022;-77
2021/12/15 02:26:10;;;;;;;48.35;13.70;;;;;;;;;;4984894;28;20569;-77
2021/12/15 02:28:37;;;;;;;43.58;12.77;;;;;;;;;;5000187;28;20053;-77
2021/12/15 02:31:19;;;;;;;40.42;12.63;;;;;;;;;;4994070;28;20038;-77
2021/12/15 02:33:55;;;;;;;36.35;12.98;;;;;;;;;;4987627;28;20057;-77
2021/12/15 02:39:07;;;;;;;53.22;14.02;;;;;;;;;;4985955;28;20033;-77
2021/12/15 02:41:32;;;;;;;40.00;11.65;;;;;;;;;;4984993;28;20126;-77
2021/12/15 02:44:07;;;;;;;44.78;12.52;;;;;;;;;;5003402;28;20121;-77
2021/12/15 02:46:32;;;;;;;;;;;;;;;;;;4988989;28;20037;-77
2021/12/15 02:48:57;;;;;;;33.55;11.48;;;;;;;;;;4988244;28;19921;-77
2021/12/15 02:51:23;;;;;;;33.50;10.35;;;;;;;;;;4994844;28;20054;-77
2021/12/15 02:53:49;;;;;;;46.50;12.27;;;;;;;;;;4986986;28;20042;-77
2021/12/15 02:56:14;;;;;;;43.88;9.05;;;;;;;;;;5002596;28;20053;-77
2021/12/15 02:58:48;;;;;;;31.15;8.20;;;;;;;;;;4988416;28;20065;-77
2021/12/15 03:01:20;;;;;;;23.08;6.50;;;;;;;;;;4988530;28;20038;-77
2021/12/15 03:06:57;;;;;;;30.15;7.75;;;;;;;;;;4966724;28;20117;-77
2021/12/15 03:17:42;;;;;;;27.42;6.35;;;;;;;;;;4994867;28;20030;-77
2021/12/15 03:20:08;;;;;;;25.23;6.68;;;;;;;;;;4988887;28;20380;-77
2021/12/15 03:22:34;;;;;;;23.75;6.40;;;;;;;;;;4989891;28;20034;-77
2021/12/15 03:24:59;;;;;;;33.08;6.90;;;;;;;;;;5005559;28;20030;-77
2021/12/15 03:33:15;;;;;;;26.98;6.80;;;;;;;;;;5003629;28;20065;-77
2021/12/15 03:36:00;;;;;;;19.23;6.35;;;;;;;;;;4987787;28;20065;-77
2021/12/15 03:38:26;;;;;;;18.02;6.13;;;;;;;;;;4990777;28;20085;-77
2021/12/15 03:40:52;;;;;;;19.95;5.80;;;;;;;;;;4996080;28;20037;-78
2021/12/15 03:43:17;;;;;;;22.73;6.45;;;;;;;;;;4998543;28;20049;-78
2021/12/15 03:45:47;;;;;;;23.30;6.85;;;;;;;;;;5005260;28;20066;-77
2021/12/15 03:48:16;;;;;;;24.80;6.53;;;;;;;;;;4990983;28;20492;-77
2021/12/15 03:50:43;;;;;;;20.85;7.30;;;;;;;;;;5005539;28;20022;-77
2021/12/15 03:53:08;;;;;;;20.80;6.70;;;;;;;;;;4996713;28;20084;-77
2021/12/15 03:55:34;;;;;;;22.33;6.45;;;;;;;;;;4995148;28;20026;-78
2021/12/15 03:58:00;;;;;;;28.48;7.53;;;;;;;;;;4997426;28;20022;-77
2021/12/15 04:00:28;;;;;;;26.55;7.43;;;;;;;;;;4995834;28;20074;-78
2021/12/15 04:02:53;;;;;;;19.02;5.78;;;;;;;;;;5004121;28;20037;-77
2021/12/15 04:05:19;;;;;;;15.82;6.32;;;;;;;;;;4996579;28;20454;-77
2021/12/15 04:07:44;;;;;;;22.88;6.60;;;;;;;;;;5001903;28;20605;-78
2021/12/15 04:10:11;;;;;;;18.30;6.35;;;;;;;;;;4987696;28;20046;-77
2021/12/15 04:12:37;;;;;;;26.98;7.70;;;;;;;;;;4987806;28;20034;-78
2021/12/15 04:15:43;;;;;;;19.92;6.25;;;;;;;;;;4987106;28;20384;-76
2021/12/15 04:17:59;;;;;;;24.98;7.32;;;;;;;;;;4987585;28;20045;-78
2021/12/15 04:20:26;;;;;;;30.23;7.80;;;;;;;;;;5004366;28;20022;-78
2021/12/15 04:22:52;;;;;;;17.23;6.35;;;;;;;;;;4994541;28;20242;-78
2021/12/15 04:25:23;;;;;;;22.85;7.60;;;;;;;;;;5002412;28;20026;-78
2021/12/15 04:28:10;;;;;;;19.42;6.88;;;;;;;;;;4991204;28;20041;-78
2021/12/15 04:30:38;;;;;;;33.83;8.20;;;;;;;;;;5017271;28;20052;-77
2021/12/15 04:33:07;;;;;;;22.65;6.22;;;;;;;;;;5002028;28;20045;-77
2021/12/15 04:35:34;;;;;;;22.00;6.55;;;;;;;;;;4998970;28;20389;-77
2021/12/15 04:37:59;;;;;;;24.65;6.47;;;;;;;;;;4987698;28;20476;-79
2021/12/15 04:40:25;;;;;;;17.60;6.13;;;;;;;;;;4997684;28;20157;-77
2021/12/15 04:42:50;;;;;;;14.40;6.05;;;;;;;;;;4989351;28;20062;-77
2021/12/15 04:45:17;;;;;;;46.53;7.60;;;;;;;;;;5002644;28;20464;-77
2021/12/15 04:47:42;;;;;;;14.93;4.72;;;;;;;;;;5013775;28;20030;-76
2021/12/15 04:50:08;;;;;;;73.65;5.72;;;;;;;;;;5005453;28;20045;-75
2021/12/15 04:52:33;;;;;;;14.38;4.82;;;;;;;;;;5002616;28;20041;-77
2021/12/15 04:54:59;;;;;;;32.22;5.55;;;;;;;;;;5002132;28;20044;-75
2021/12/15 04:57:24;;;;;;;31.77;5.35;;;;;;;;;;4989096;28;20101;-77
2021/12/15 04:59:50;;;;;;;19.27;4.95;;;;;;;;;;5003906;28;20474;-77
2021/12/15 05:02:15;;;;;;;22.10;4.88;;;;;;;;;;4997049;28;20035;-76
2021/12/15 05:04:41;;;;;;;27.20;4.80;;;;;;;;;;4987492;28;20504;-76
2021/12/15 05:07:06;;;;;;;35.53;5.72;;;;;;;;;;5001591;28;20440;-77
2021/12/15 05:09:32;;;;;;;31.08;5.22;;;;;;;;;;5004465;28;20057;-76
2021/12/15 05:11:58;;;;;;;17.85;4.75;;;;;;;;;;4993302;28;20038;-76
2021/12/15 05:14:23;;;;;;;25.58;5.30;;;;;;;;;;5003895;28;20497;-77
2021/12/15 05:16:49;;;;;;;21.98;5.60;;;;;;;;;;4985472;28;20106;-77
2021/12/15 05:19:15;;;;;;;80.55;6.00;;;;;;;;;;5004851;28;20100;-76
2021/12/15 05:21:40;;;;;;;81.57;5.57;;;;;;;;;;4987258;28;20109;-76
2021/12/15 05:24:30;;;;;;;16.38;5.97;;;;;;;;;;4986344;28;20057;-76
2021/12/15 05:27:05;;;;;;;30.77;7.45;;;;;;;;;;4985220;28;20026;-77
2021/12/15 05:29:30;;;;;;;19.25;7.22;;;;;;;;;;4997238;28;20034;-76
2021/12/15 05:31:56;;;;;;;49.00;7.18;;;;;;;;;;5001700;28;20041;-78
2021/12/15 05:34:22;;;;;;;25.65;7.55;;;;;;;;;;4987227;28;20033;-77
2021/12/15 05:36:50;;;;;;;18.73;7.05;;;;;;;;;;5001753;28;20770;-76
2021/12/15 05:39:15;;;;;;;26.40;6.55;;;;;;;;;;5008255;28;20495;-77
2021/12/15 05:41:41;;;;;;;16.50;6.72;;;;;;;;;;4984291;28;20030;-76
2021/12/15 05:44:06;;;;;;;33.03;6.20;;;;;;;;;;4990876;28;20030;-77
2021/12/15 05:46:32;;;;;;;19.50;6.57;;;;;;;;;;5001045;28;20030;-77
2021/12/15 05:48:57;;;;;;;18.50;7.25;;;;;;;;;;4999949;28;20034;-77
2021/12/15 05:51:22;;;;;;;129.07;8.88;;;;;;;;;;4993987;28;20094;-77
2021/12/15 05:53:48;;;;;;;20.20;7.45;;;;;;;;;;4986602;28;20649;-78
2021/12/15 05:56:13;;;;;;;29.13;8.50;;;;;;;;;;4999778;28;20031;-77
2021/12/15 05:58:39;;;;;;;31.77;9.32;;;;;;;;;;4984197;28;20077;-77
2021/12/15 06:01:05;;;;;;;36.72;9.55;;;;;;;;;;4985350;28;20509;-76
2021/12/15 06:03:30;;;;;;;63.15;8.52;;;;;;;;;;4987935;28;20392;-77
2021/12/15 06:05:55;;;;;;;28.70;9.35;;;;;;;;;;4986935;28;20030;-76
2021/12/15 06:08:21;;;;;;;25.27;8.73;;;;;;;;;;4993085;28;20125;-77
2021/12/15 06:10:46;;;;;;;22.15;7.65;;;;;;;;;;4994633;28;20030;-77
2021/12/15 06:13:11;;;;;;;34.25;9.02;;;;;;;;;;5002566;28;20113;-76
2021/12/15 06:15:37;;;;;;;19.65;8.10;;;;;;;;;;5014145;22;20053;-69
2021/12/15 06:18:08;;;;;;;17.80;7.80;;;;;;;;;;4980189;28;20022;-69
2021/12/15 06:20:33;;;;;;;29.52;8.15;;;;;;;;;;4977675;28;20522;-69
2021/12/15 06:23:00;;;;;;;23.92;8.82;;;;;;;;;;4974124;28;20030;-69
2021/12/15 06:25:25;;;;;;;24.20;9.23;;;;;;;;;;4972118;28;20022;-69
2021/12/15 06:27:51;;;;;;;25.25;8.40;;;;;;;;;;4977729;28;20113;-69
2021/12/15 06:30:16;;;;;;;36.20;9.27;;;;;;;;;;4978047;28;20154;-69
2021/12/15 06:32:42;;;;;;;25.67;9.80;;;;;;;;;;4973679;28;20033;-69
2021/12/15 06:35:08;;;;;;;18.67;7.60;;;;;;;;;;4962571;28;20025;-69
2021/12/15 06:37:33;;;;;;;19.27;8.13;;;;;;;;;;4981405;28;20093;-69
2021/12/15 06:39:58;;;;;;;18.20;7.53;;;;;;;;;;4979101;28;20026;-69
2021/12/15 06:42:24;;;;;;;33.45;6.88;;;;;;;;;;4971228;28;20034;-69
2021/12/15 06:44:49;;;;;;;37.17;8.70;;;;;;;;;;4972136;28;20105;-69
2021/12/15 07:00:34;;;;;;;19.85;7.32;;;;;;;;;;4979204;28;20042;-69
2021/12/15 07:03:00;;;;;;;;;;;;;;;;;;4981127;28;20061;-69
2021/12/15 07:05:25;;;;;;;27.02;9.05;;;;;;;;;;4980271;28;19961;-69
2021/12/15 07:07:51;;;;;;;15.10;6.65;;;;;;;;;;4983162;28;20034;-69
2021/12/15 07:10:19;;;;;;;52.17;6.47;;;;;;;;;;4981266;28;20026;-69
2021/12/15 07:12:44;;;;;;;17.42;6.95;;;;;;;;;;4964476;28;20027;-69
2021/12/15 07:15:09;;;;;;;17.63;6.95;;;;;;;;;;4980138;28;20034;-69
2021/12/15 07:17:36;;;;;;;43.75;7.40;;;;;;;;;;4973749;28;20026;-69
2021/12/15 07:20:07;;;;;;;16.88;7.78;;;;;;;;;;4977094;28;20070;-69
2021/12/15 07:22:43;;;;;;;30.98;8.38;;;;;;;;;;4960548;28;20030;-69
2021/12/15 07:25:09;;;;;;;33.05;7.53;;;;;;;;;;4975044;28;20053;-69
2021/12/15 07:27:34;;;;;;;21.17;9.02;;;;;;;;;;4977746;28;20031;-69
2021/12/15 07:30:00;;;;;;;26.08;9.30;;;;;;;;;;4982365;28;20084;-69
2021/12/15 07:32:25;;;;;;;23.60;8.48;;;;;;;;;;4971734;28;20047;-69
2021/12/15 07:34:51;;;;;;;22.55;8.90;;;;;;;;;;4985182;28;20472;-69
2021/12/15 07:37:16;;;;;;;40.95;9.27;;;;;;;;;;4974226;28;20026;-69
2021/12/15 07:39:48;;;;;;;30.15;10.88;;;;;;;;;;4981863;28;20035;-69
2021/12/15 07:42:14;;;;;;;82.43;10.57;;;;;;;;;;4974745;28;20034;-69
2021/12/15 07:44:40;;;;;;;26.75;9.85;;;;;;;;;;4974650;28;20666;-69
2021/12/15 07:47:05;;;;;;;21.38;8.23;;;;;;;;;;4973347;28;20033;-69
2021/12/15 07:49:31;;;;;;;125.85;11.05;;;;;;;;;;4986270;28;20022;-69
2021/12/15 07:52:01;;;;;;;71.78;8.82;;;;;;;;;;4981680;28;20029;-69
2021/12/15 07:54:30;;;;;;;22.55;8.38;;;;;;;;;;4966797;28;20038;-69
2021/12/15 07:56:56;;;;;;;22.52;9.18;;;;;;;;;;4974038;28;20109;-69
2021/12/15 07:59:21;;;;;;;31.73;10.57;;;;;;;;;;4983305;28;20150;-69
2021/12/15 08:01:46;;;;;;;30.52;9.25;;;;;;;;;;4973575;28;20074;-69
2021/12/15 08:04:12;;;;;;;73.40;10.45;;;;;;;;;;4973144;28;20477;-69
2021/12/15 08:06:37;;;;;;;25.67;10.07;;;;;;;;;;4981379;28;20031;-69
2021/12/15 08:09:03;;;;;;;26.58;9.50;;;;;;;;;;4978357;28;20062;-69
2021/12/15 08:11:28;;;;;;;16.38;8.15;;;;;;;;;;4972363;28;20038;-69
2021/12/15 08:13:53;;;;;;;39.10;10.32;;;;;;;;;;4977853;28;20041;-69
2021/12/15 08:16:19;;;;;;;57.55;9.88;;;;;;;;;;4977972;28;20056;-69
2021/12/15 08:18:46;;;;;;;19.73;9.75;;;;;;;;;;4971305;28;20027;-69
2021/12/15 08:21:11;;;;;;;18.50;8.50;;;;;;;;;;4973204;28;20026;-69
2021/12/15 08:23:36;;;;;;;24.50;9.70;;;;;;;;;;4976897;28;20037;-69
2021/12/15 08:26:03;;;;;;;32.67;9.95;;;;;;;;;;4966611;28;20030;-69
2021/12/15 08:28:28;;;;;;;26.60;10.63;;;;;;;;;;4976297;28;20062;-69
2021/12/15 08:30:53;;;;;;;22.25;9.95;;;;;;;;;;4976735;28;20126;-69
2021/12/15 08:33:20;;;;;;;57.45;11.70;;;;;;;;;;4974815;28;20141;-69
2021/12/15 08:35:49;;;;;;;28.15;10.18;;;;;;;;;;4974097;28;20016;-69
2021/12/15 08:38:14;;;;;;;43.33;11.15;;;;;;;;;;4980875;28;20038;-69
2021/12/15 08:40:40;;;;;;;20.58;9.60;;;;;;;;;;4980128;28;20018;-69
2021/12/15 08:43:07;;;;;;;77.75;10.98;;;;;;;;;;4984500;28;20030;-69
2021/12/15 08:45:32;;;;;;;22.55;9.43;;;;;;;;;;4977177;28;20026;-69
2021/12/15 08:47:58;;;;;;;107.60;9.82;;;;;;;;;;4985303;28;20085;-69
2021/12/15 08:50:27;;;;;;;27.08;10.18;;;;;;;;;;4992678;28;20150;-69
2021/12/15 08:52:53;;;;;;;73.30;9.88;;;;;;;;;;4980877;28;20859;-69
2021/12/15 08:55:18;;;;;;;27.92;9.07;;;;;;;;;;4973236;28;20030;-69
2021/12/15 08:57:48;;;;;;;41.15;8.48;;;;;;;;;;4973990;28;20030;-69
2021/12/15 09:00:16;;;;;;;20.55;9.05;;;;;;;;;;4971647;28;20557;-69
2021/12/15 09:02:41;;;;;;;31.10;8.32;;;;;;;;;;4973506;28;20104;-69
2021/12/15 09:05:07;;;;;;;24.10;9.48;;;;;;;;;;4965809;28;20026;-69
2021/12/15 09:07:32;;;;;;;40.65;8.80;;;;;;;;;;4980725;28;20080;-69
2021/12/15 09:09:57;;;;;;;43.85;9.20;;;;;;;;;;4972596;28;20449;-69
2021/12/15 09:12:22;;;;;;;20.63;9.10;;;;;;;;;;4973614;28;20500;-69
2021/12/15 09:14:48;;;;;;;19.10;8.60;;;;;;;;;;4977006;28;20401;-69
2021/12/15 09:17:14;;;;;;;46.50;8.80;;;;;;;;;;4986931;28;20715;-69
2021/12/15 09:19:39;;;;;;;50.80;9.68;;;;;;;;;;4975665;28;20469;-69
2021/12/15 09:22:04;;;;;;;20.80;7.90;;;;;;;;;;4972969;28;20030;-69
2021/12/15 09:24:30;;;;;;;28.08;9.60;;;;;;;;;;4971998;28;20085;-69
2021/12/15 09:26:55;;;;;;;25.73;8.13;;;;;;;;;;4972198;28;20501;-69
2021/12/15 09:29:20;;;;;;;42.13;9.57;;;;;;;;;;4972573;28;20080;-69
2021/12/15 09:31:46;;;;;;;16.58;8.30;;;;;;;;;;4971957;28;20042;-69
2021/12/15 09:34:17;;;;;;;21.08;8.73;;;;;;;;;;4976685;28;20033;-69
2021/12/15 09:36:43;;;;;;;17.23;8.50;;;;;;;;;;4977000;28;20484;-69
2021/12/15 09:39:10;;;;;;;14.88;7.88;;;;;;;;;;4972547;28;20117;-69
2021/12/15 09:41:36;;;;;;;50.15;7.45;;;;;;;;;;4981253;28;20023;-69
2021/12/15 09:44:08;;;;;;;14.00;7.45;;;;;;;;;;4973237;28;20019;-69
2021/12/15 10:03:00;;;;;;;19.45;6.38;;;;;;;;;;4977434;28;20612;-69
2021/12/15 10:10:49;;;;;;;;;;;;;;;;;;4973742;28;20038;-69
2021/12/15 10:17:43;;;;;;;12.10;5.97;;;;;;;;;;4971334;28;20789;-69
2021/12/15 10:19:51;;;;;;;11.27;5.80;;;;;;;;;;4968229;28;20046;-69
2021/12/15 10:22:30;;;;;;;63.85;6.13;;;;;;;;;;4973397;28;20561;-69
2021/12/15 10:25:06;;;;;;;12.13;5.95;;;;;;;;;;4964934;28;20103;-69
2021/12/15 10:28:05;;;;;;;14.48;5.57;;;;;;;;;;4975424;28;20082;-69
2021/12/15 10:30:35;;;;;;;8.73;5.10;;;;;;;;;;4960747;28;20055;-69
2021/12/15 10:33:25;;;;;;;10.45;5.47;;;;;;;;;;4970426;28;20046;-69
2021/12/15 10:35:52;;;;;;;13.18;5.65;;;;;;;;;;4966963;28;20106;-69
2021/12/15 10:38:18;;;;;;;25.70;6.22;;;;;;;;;;4978268;28;20030;-69
2021/12/15 10:41:10;;;;;;;15.07;5.80;;;;;;;;;;4973873;28;20277;-69
2021/12/15 10:43:44;;;;;;;13.00;6.57;;;;;;;;;;4970499;28;20093;-69
2021/12/15 10:46:14;;;;;;;11.63;5.90;;;;;;;;;;4982640;28;20102;-69
2021/12/15 10:48:53;;;;;;;15.13;6.03;;;;;;;;;;4983331;28;20018;-69
2021/12/15 10:51:45;;;;;;;13.60;4.70;;;;;;;;;;4977803;28;20050;-69
2021/12/15 10:54:33;;;;;;;24.60;5.18;;;;;;;;;;4959319;28;20029;-69
2021/12/15 10:57:01;;;;;;;5.50;4.22;;;;;;;;;;4980492;28;20034;-69
2021/12/15 10:59:28;;;;;;;6.53;3.88;;;;;;;;;;4971055;28;20430;-69
2021/12/15 11:02:05;;;;;;;15.43;3.95;;;;;;;;;;4976730;28;20031;-69
2021/12/15 11:04:52;;;;;;;41.00;4.78;;;;;;;;;;4972848;28;20122;-69
2021/12/15 11:07:29;;;;;;;22.90;4.13;;;;;;;;;;4981996;28;20555;-69
2021/12/15 11:10:16;;;;;;;4.97;3.63;;;;;;;;;;4977346;28;20512;-69
2021/12/15 11:12:50;;;;;;;4.97;3.55;;;;;;;;;;4981420;28;20485;-69
2021/12/15 11:15:23;;;;;;;6.15;3.40;;;;;;;;;;4982931;28;20077;-69
2021/12/15 11:17:53;;;;;;;4.93;3.35;;;;;;;;;;4977928;28;20164;-69
2021/12/15 11:20:24;;;;;;;3.95;3.28;;;;;;;;;;4979407;28;20027;-69
2021/12/15 11:23:03;;;;;;;9.40;3.60;;;;;;;;;;4974138;28;20050;-69
2021/12/15 11:25:49;;;;;;;7.78;4.13;;;;;;;;;;4973197;28;20084;-69
2021/12/15 11:28:14;;;;;;;6.43;4.65;;;;;;;;;;4975065;28;20448;-69
2021/12/15 11:30:44;;;;;;;5.57;3.90;;;;;;;;;;4983790;28;20040;-69
2021/12/15 11:33:18;;;;;;;18.80;3.72;;;;;;;;;;4986994;28;20026;-69
2021/12/15 11:36:05;;;;;;;4.90;3.30;;;;;;;;;;4977611;28;20054;-69
2021/12/15 11:38:37;;;;;;;4.50;3.65;;;;;;;;;;4978328;28;20033;-69
2021/12/15 11:41:06;;;;;;;6.18;3.15;;;;;;;;;;4977739;28;20026;-69
2021/12/15 11:43:39;;;;;;;4.13;3.10;;;;;;;;;;4968078;28;20500;-70
2021/12/15 11:46:16;;;;;;;4.55;3.47;;;;;;;;;;4968883;28;20034;-70
2021/12/15 11:48:42;;;;;;;7.57;3.80;;;;;;;;;;4964432;28;20204;-70
2021/12/15 11:51:07;;;;;;;6.40;3.88;;;;;;;;;;4965300;28;20553;-70
2021/12/15 11:53:44;;;;;;;16.83;3.80;;;;;;;;;;4963732;28;20062;-70
2021/12/15 11:56:14;;;;;;;4.25;3.45;;;;;;;;;;4961541;28;20025;-70
2021/12/15 11:58:39;;;;;;;5.38;3.67;;;;;;;;;;4962053;28;20035;-70
2021/12/15 12:01:05;;;;;;;11.55;3.50;;;;;;;;;;4962999;28;20513;-70
2021/12/15 12:03:30;;;;;;;5.85;3.75;;;;;;;;;;4961889;28;20023;-70
2021/12/15 12:05:56;;;;;;;4.60;3.45;;;;;;;;;;4961804;28;20588;-70
2021/12/15 12:08:22;;;;;;;5.78;3.60;;;;;;;;;;4962945;28;20533;-70
2021/12/15 12:10:49;;;;;;;5.70;3.88;;;;;;;;;;4960166;28;20034;-70
2021/12/15 12:13:23;;;;;;;10.82;3.53;;;;;;;;;;4961501;28;20026;-70
2021/12/15 12:15:52;;;;;;;5.68;3.33;;;;;;;;;;4960013;28;20030;-70
2021/12/15 12:18:20;;;;;;;3.28;2.97;;;;;;;;;;4961265;28;20434;-70
2021/12/15 12:20:47;;;;;;;4.32;3.40;;;;;;;;;;4960582;28;20102;-70
2021/12/15 12:23:15;;;;;;;5.63;3.90;;;;;;;;;;4962191;28;20440;-70
2021/12/15 12:25:46;;;;;;;8.45;3.55;;;;;;;;;;4962376;28;20026;-70
2021/12/15 12:28:14;;;;;;;4.05;3.63;;;;;;;;;;4964640;28;20023;-70
2021/12/15 12:30:45;;;;;;;5.30;3.78;;;;;;;;;;4963738;28;20062;-70
2021/12/15 12:33:11;;;;;;;4.88;3.60;;;;;;;;;;4963107;28;20031;-70
2021/12/15 12:35:45;;;;;;;3.63;3.22;;;;;;;;;;4963429;28;20368;-70
2021/12/15 12:38:16;;;;;;;3.40;3.10;;;;;;;;;;4968901;28;20092;-70
2021/12/15 12:40:50;;;;;;;4.82;3.65;;;;;;;;;;4963519;28;20031;-70
2021/12/15 12:43:25;;;;;;;;;;;;;;;;;;4963749;28;20114;-70
2021/12/15 12:46:15;;;;;;;4.78;3.58;;;;;;;;;;4962708;28;19914;-70
2021/12/15 12:59:58;;;;;;;109.20;4.93;;;;;;;;;;4975730;28;20521;-70
2021/12/15 13:02:37;;;;;;;13.98;3.63;;;;;;;;;;4961400;28;20054;-70
2021/12/15 13:05:02;;;;;;;17.23;4.10;;;;;;;;;;4964168;28;20045;-70
2021/12/15 13:07:47;;;;;;;6.22;3.67;;;;;;;;;;4963557;28;20031;-70
2021/12/15 13:10:13;;;;;;;6.05;4.00;;;;;;;;;;4963643;28;20047;-70
2021/12/15 13:12:44;;;;;;;5.72;3.50;;;;;;;;;;4962029;28;20042;-70
2021/12/15 13:15:09;;;;;;;3.67;3.33;;;;;;;;;;4961052;28;20034;-70
2021/12/15 13:17:37;;;;;;;36.97;4.07;;;;;;;;;;4968321;28;20037;-70
2021/12/15 13:20:04;;;;;;;4.30;3.15;;;;;;;;;;4963690;28;20058;-70
2021/12/15 13:31:02;;;;;;;7.10;3.63;;;;;;;;;;4961518;28;20034;-70
2021/12/15 13:33:29;;;;;;;17.27;3.88;;;;;;;;;;4963043;28;20082;-70
2021/12/15 13:35:56;;;;;;;5.13;3.58;;;;;;;;;;4963299;28;20125;-70
2021/12/15 13:38:42;;;;;;;92.35;5.30;;;;;;;;;;4962153;28;20033;-70
2021/12/15 13:44:19;;;;;;;4.57;3.72;;;;;;;;;;4956972;28;20094;-70
2021/12/15 13:46:47;;;;;;;8.82;4.68;;;;;;;;;;4962430;28;20117;-70
2021/12/15 13:49:23;;;;;;;6.47;4.25;;;;;;;;;;4963300;28;20023;-70
2021/12/15 13:52:16;;;;;;;68.13;5.78;;;;;;;;;;4962784;28;20580;-70
2021/12/15 13:54:41;;;;;;;6.72;4.35;;;;;;;;;;4966949;28;20035;-70
2021/12/15 13:57:12;;;;;;;16.33;5.15;;;;;;;;;;4960535;28;20027;-70
2021/12/15 13:59:53;;;;;;;20.90;8.35;;;;;;;;;;4962479;28;20086;-70
2021/12/15 14:02:22;;;;;;;16.48;5.95;;;;;;;;;;4959368;28;20043;-70
2021/12/15 14:04:51;;;;;;;7.13;5.18;;;;;;;;;;4960487;28;20027;-70
2021/12/15 14:07:33;;;;;;;7.03;5.15;;;;;;;;;;4961095;28;20041;-70
2021/12/15 14:10:14;;;;;;;12.93;4.85;;;;;;;;;;4962358;28;20097;-70
2021/12/15 14:12:45;;;;;;;5.97;4.55;;;;;;;;;;4964211;28;20435;-70
2021/12/15 14:15:29;;;;;;;55.67;5.13;;;;;;;;;;4964693;28;20048;-70
2021/12/15 14:18:06;;;;;;;17.33;6.25;;;;;;;;;;4970310;28;20035;-70
2021/12/15 14:20:34;;;;;;;6.40;4.90;;;;;;;;;;4966413;28;20126;-70
2021/12/15 14:23:03;;;;;;;5.78;4.80;;;;;;;;;;4966525;28;20460;-70
2021/12/15 14:25:33;;;;;;;5.78;4.93;;;;;;;;;;4966325;28;20035;-70
2021/12/15 14:28:05;;;;;;;30.27;5.47;;;;;;;;;;4966199;28;20037;-70
2021/12/15 14:30:30;;;;;;;8.15;5.97;;;;;;;;;;4965000;28;20102;-70
2021/12/15 14:32:56;;;;;;;40.25;6.10;;;;;;;;;;4966500;28;20536;-70
2021/12/15 14:35:22;;;;;;;8.05;5.47;;;;;;;;;;4965253;28;20552;-70
2021/12/15 14:37:48;;;;;;;7.22;5.25;;;;;;;;;;4963410;28;20413;-70
2021/12/15 14:40:13;;;;;;;7.05;5.05;;;;;;;;;;4963821;28;20042;-70
2021/12/15 14:42:42;;;;;;;46.88;6.70;;;;;;;;;;4970761;28;20537;-70
2021/12/15 14:45:08;;;;;;;32.70;4.85;;;;;;;;;;4964583;28;20034;-70
2021/12/15 14:47:35;;;;;;;36.97;5.47;;;;;;;;;;4962405;28;20042;-70
2021/12/15 14:50:14;;;;;;;8.13;5.88;;;;;;;;;;4962293;28;20041;-70
2021/12/15 14:52:41;;;;;;;74.57;7.28;;;;;;;;;;4963377;28;20390;-70
2021/12/15 14:55:19;;;;;;;7.07;5.22;;;;;;;;;;4964259;28;20030;-70
2021/12/15 14:57:44;;;;;;;8.13;5.50;;;;;;;;;;4965135;28;20030;-70
2021/12/15 15:00:16;;;;;;;40.17;6.13;;;;;;;;;;4963822;28;20030;-70
2021/12/15 15:02:43;;;;;;;29.73;5.70;;;;;;;;;;4964963;28;20031;-70
2021/12/15 15:05:21;;;;;;;30.17;5.20;;;;;;;;;;4962962;28;20023;-70
2021/12/15 15:07:51;;;;;;;57.13;6.72;;;;;;;;;;4965272;28;20027;-70
2021/12/15 15:10:22;;;;;;;9.60;6.18;;;;;;;;;;4964155;28;20062;-70
2021/12/15 15:12:47;;;;;;;6.30;4.78;;;;;;;;;;4965197;28;20473;-70
2021/12/15 15:15:18;;;;;;;35.22;6.03;;;;;;;;;;4964813;28;20054;-70
2021/12/15 15:17:52;;;;;;;127.90;8.63;;;;;;;;;;4968038;28;21515;-70
2021/12/15 15:20:27;;;;;;;9.63;7.22;;;;;;;;;;4961937;28;20556;-70
2021/12/15 15:22:54;;;;;;;21.63;6.90;;;;;;;;;;4961194;28;20034;-70
2021/12/15 15:25:24;;;;;;;91.63;7.45;;;;;;;;;;4961872;28;20027;-70
2021/12/15 15:27:55;;;;;;;10.18;6.82;;;;;;;;;;4961332;28;20038;-70
2021/12/15 15:30:23;;;;;;;26.35;7.28;;;;;;;;;;4976143;28;20055;-70
2021/12/15 15:32:50;;;;;;;12.07;7.68;;;;;;;;;;4962557;28;20114;-70
2021/12/15 15:35:22;;;;;;;7.00;5.25;;;;;;;;;;4963418;28;20085;-70
2021/12/15 15:37:47;;;;;;;116.30;7.30;;;;;;;;;;4963892;28;20059;-70
2021/12/15 15:40:46;;;;;;;25.05;5.18;;;;;;;;;;4968628;28;20043;-70
2021/12/15 15:43:17;;;;;;;7.70;4.78;;;;;;;;;;4960661;28;20031;-70
2021/12/15 15:45:47;;;;;;;321.67;9.93;;;;;;;;;;4964408;28;20030;-70
2021/12/15 15:48:21;;;;;;;81.30;7.63;;;;;;;;;;4964563;28;20046;-67
2021/12/15 15:50:51;;;;;;;27.65;5.82;;;;;;;;;;4965499;28;20026;-67
2021/12/15 15:53:16;;;;;;;197.43;9.25;;;;;;;;;;4964513;28;20162;-67
2021/12/15 15:55:43;;;;;;;13.18;6.13;;;;;;;;;;4964728;28;20118;-67
2021/12/15 15:58:09;;;;;;;150.20;12.35;;;;;;;;;;4964087;28;20094;-67
2021/12/15 16:00:43;;;;;;;80.35;7.70;;;;;;;;;;4962199;28;20038;-67
2021/12/15 16:03:10;;;;;;;59.83;8.48;;;;;;;;;;4963952;28;20039;-67
2021/12/15 16:05:35;;;;;;;242.43;10.07;;;;;;;;;;4960917;28;20488;-67
2021/12/15 16:08:01;;;;;;;258.42;9.90;;;;;;;;;;4964347;28;20045;-67
2021/12/15 16:10:28;;;;;;;13.38;7.63;;;;;;;;;;4964942;28;20023;-67